CYXN

Whale Cove Airport

Whale Cove, Canada
METAR CYXN 162300Z 30009KT 15SM SKC M31/M34 A3015 RMK -28.5/-29.8/0/0.0MM LAST STFD OB/NXT 171500Z SLP212
Observed Flight Rules
Nov-16 @ 23:00 UTC (10 hours ago) Visual Flight Rules
Wind Visibility Clouds
300° at 9 knots 15 miles
  • Clear skies
Temperatures Readings
Current -31°C / -24°F
Dewpoint -34°C / -29°F
Humidity 75%
Altimeter 30.15" Hg
Pressure 1021.2 hPa
Elevation 20
METAR CYXN 162300Z 30009KT 15SM SKC M31/M34 A3015 RMK -28.5/-29.8/0/0.0MM LAST STFD OB/NXT 171500Z SLP212
Observed Flight Rules
Nov-16 @ 23:00 UTC
(10 hours ago)
VFR
Wind Visibility
300° at 9 knots 15 miles
Clouds
  • Clear skies
Temperature Dewpoint
-31°C / -24°F -34°C / -29°F
Humidity Altimeter Pressure
75% 30.15" Hg 1021.2 hPa